Time;durP1;ratioP1;P1;durP2;ratioP2;P2;SDS_P1;SDS_P2;PMS_P1;PMS_P2;Temp;Humidity;BMP_temperature;BMP_pressure;BME280_temperature;BME280_humidity;BME280_pressure;Samples;Min_cycle;Max_cycle;Signal;HPM_P1;HPM_P2
2021/09/22 00:00:06;;;;;;;10.50;7.87;;;14.10;99.90;;;;;;5056076;28;20459;-74
2021/09/22 00:02:34;;;;;;;11.50;7.70;;;14.10;99.90;;;;;;5056024;28;20461;-74
2021/09/22 00:05:01;;;;;;;13.10;8.17;;;14.20;99.90;;;;;;5056375;28;20906;-74
2021/09/22 00:07:29;;;;;;;11.53;7.90;;;14.20;99.90;;;;;;5056200;28;20901;-74
2021/09/22 00:09:56;;;;;;;12.67;9.77;;;14.20;99.90;;;;;;5056193;28;20466;-74
2021/09/22 00:12:22;;;;;;;12.00;9.43;;;14.20;99.90;;;;;;5055998;28;20498;-74
2021/09/22 00:14:49;;;;;;;15.20;8.70;;;14.20;99.90;;;;;;5019055;28;1064856;-74
2021/09/22 00:17:16;;;;;;;12.90;8.77;;;14.20;99.90;;;;;;5057060;28;20867;-74
2021/09/22 00:19:43;;;;;;;12.57;7.70;;;14.20;99.90;;;;;;5057027;28;20529;-74
2021/09/22 00:22:10;;;;;;;13.57;8.17;;;14.20;99.90;;;;;;5056598;28;20465;-74
2021/09/22 00:24:38;;;;;;;13.33;7.70;;;14.20;99.90;;;;;;5057044;28;20458;-74
2021/09/22 00:27:05;;;;;;;15.60;7.93;;;14.10;99.90;;;;;;5056959;28;20452;-74
2021/09/22 00:29:31;;;;;;;16.30;8.10;;;14.10;99.90;;;;;;5056819;28;20788;-74
2021/09/22 00:31:58;;;;;;;16.83;7.90;;;14.10;99.90;;;;;;5056943;28;20481;-74
2021/09/22 00:34:25;;;;;;;12.87;8.23;;;14.00;99.90;;;;;;5056795;28;20485;-74
2021/09/22 00:36:52;;;;;;;12.87;7.87;;;14.00;99.90;;;;;;5057065;28;20471;-74
2021/09/22 00:39:19;;;;;;;14.40;8.73;;;13.90;99.90;;;;;;5056336;28;20485;-74
2021/09/22 00:41:47;;;;;;;18.83;8.30;;;13.90;99.90;;;;;;5056370;28;20459;-74
2021/09/22 00:44:13;;;;;;;21.23;9.13;;;13.80;99.90;;;;;;5056319;28;20456;-73
2021/09/22 00:46:40;;;;;;;13.77;8.03;;;13.80;99.90;;;;;;5056186;28;20565;-74
2021/09/22 00:49:07;;;;;;;20.60;8.33;;;13.80;99.90;;;;;;5055754;28;20460;-73
2021/09/22 00:51:34;;;;;;;14.87;8.40;;;13.80;99.90;;;;;;5056007;28;20471;-73
2021/09/22 00:54:00;;;;;;;18.90;9.00;;;13.80;99.90;;;;;;5056999;28;20492;-73
2021/09/22 00:56:27;;;;;;;21.20;9.00;;;13.80;99.90;;;;;;5056668;28;20457;-73
2021/09/22 00:58:56;;;;;;;14.23;7.80;;;13.70;99.90;;;;;;5056585;28;20517;-73
2021/09/22 01:01:22;;;;;;;14.77;8.67;;;13.70;99.90;;;;;;5056295;28;20927;-73
2021/09/22 01:03:49;;;;;;;14.30;8.43;;;13.70;99.90;;;;;;5056607;28;20463;-73
2021/09/22 01:06:17;;;;;;;21.43;9.70;;;13.70;99.90;;;;;;5056278;28;20502;-73
2021/09/22 01:08:44;;;;;;;15.77;8.90;;;13.70;99.90;;;;;;5056900;28;20466;-73
2021/09/22 01:11:10;;;;;;;13.67;7.67;;;13.70;99.90;;;;;;5055718;28;20470;-73
2021/09/22 01:13:37;;;;;;;18.43;8.03;;;13.70;99.90;;;;;;5056314;28;20818;-73
2021/09/22 01:16:07;;;;;;;17.87;7.47;;;13.70;99.90;;;;;;5056052;28;20499;-73
2021/09/22 01:18:33;;;;;;;17.40;8.60;;;13.70;99.90;;;;;;5056197;28;20521;-73
2021/09/22 01:21:00;;;;;;;16.20;8.57;;;13.70;99.90;;;;;;5055991;28;20947;-73
2021/09/22 01:23:29;;;;;;;16.97;8.57;;;13.70;99.90;;;;;;5056216;28;20469;-73
2021/09/22 01:25:57;;;;;;;17.40;8.73;;;13.70;99.90;;;;;;5056672;28;20922;-73
2021/09/22 01:28:27;;;;;;;14.80;8.03;;;13.70;99.90;;;;;;5056877;28;20495;-73
2021/09/22 01:30:53;;;;;;;15.83;8.90;;;13.70;99.90;;;;;;5056789;28;20527;-73
2021/09/22 01:33:24;;;;;;;19.53;8.20;;;13.70;99.90;;;;;;5055279;28;20468;-72
2021/09/22 01:35:51;;;;;;;14.80;7.67;;;13.70;99.90;;;;;;5056085;28;20977;-73
2021/09/22 01:38:20;;;;;;;20.50;9.40;;;13.80;99.90;;;;;;5056214;28;20452;-73
2021/09/22 01:40:58;;;;;;;17.70;8.30;;;13.80;99.90;;;;;;5055931;28;20466;-73
2021/09/22 01:43:25;;;;;;;16.33;7.13;;;13.70;99.90;;;;;;5056822;28;20435;-73
2021/09/22 01:45:52;;;;;;;12.60;7.57;;;13.70;99.90;;;;;;5056403;28;20459;-72
2021/09/22 01:48:19;;;;;;;18.23;7.97;;;13.80;99.90;;;;;;5055817;28;20922;-73
2021/09/22 01:50:46;;;;;;;17.50;7.80;;;13.80;99.90;;;;;;5055911;28;20471;-73
2021/09/22 01:53:13;;;;;;;18.63;7.50;;;13.80;99.90;;;;;;5055508;28;20487;-73
2021/09/22 01:55:40;;;;;;;20.20;7.13;;;13.80;99.90;;;;;;5055531;28;20962;-73
2021/09/22 01:58:08;;;;;;;14.33;6.77;;;13.80;99.90;;;;;;5055719;28;20475;-73
2021/09/22 02:00:35;;;;;;;22.57;6.97;;;13.80;99.90;;;;;;5055056;28;20468;-73
2021/09/22 02:03:02;;;;;;;16.70;6.77;;;13.80;99.90;;;;;;5055825;28;20470;-73
2021/09/22 02:05:29;;;;;;;12.80;5.90;;;13.80;99.90;;;;;;5055886;28;20500;-72
2021/09/22 02:07:55;;;;;;;20.80;6.07;;;13.80;99.90;;;;;;5055609;28;20461;-74
2021/09/22 02:10:23;;;;;;;12.87;6.00;;;13.70;99.90;;;;;;5055844;28;20487;-73
2021/09/22 02:12:50;;;;;;;15.57;6.10;;;13.70;99.90;;;;;;5055349;28;20461;-74
2021/09/22 02:15:18;;;;;;;17.20;6.43;;;13.70;99.90;;;;;;5055390;28;20563;-73
2021/09/22 02:17:45;;;;;;;13.83;6.00;;;13.70;99.90;;;;;;5055030;28;20452;-73
2021/09/22 02:20:12;;;;;;;13.47;5.03;;;13.70;99.90;;;;;;5055088;28;20466;-73
2021/09/22 02:22:39;;;;;;;14.27;4.63;;;13.60;99.90;;;;;;5055845;28;20465;-73
2021/09/22 02:25:08;;;;;;;14.57;5.87;;;13.60;99.90;;;;;;5056472;28;20451;-72
2021/09/22 02:27:35;;;;;;;19.03;5.87;;;13.60;99.90;;;;;;5055746;28;20456;-74
2021/09/22 02:30:02;;;;;;;15.60;5.13;;;13.60;99.90;;;;;;5055367;28;20464;-74
2021/09/22 02:32:30;;;;;;;15.50;4.83;;;13.50;99.90;;;;;;5055044;28;20459;-74
2021/09/22 02:34:56;;;;;;;16.47;5.60;;;13.50;99.90;;;;;;5054641;28;20798;-74
2021/09/22 02:37:23;;;;;;;18.73;5.83;;;13.40;99.90;;;;;;5054607;28;20794;-74
2021/09/22 02:39:50;;;;;;;16.47;5.40;;;13.40;99.90;;;;;;5055015;28;20472;-75
2021/09/22 02:42:17;;;;;;;13.97;5.53;;;13.40;99.90;;;;;;5054608;28;20460;-74
2021/09/22 02:44:43;;;;;;;16.33;5.93;;;13.30;99.90;;;;;;5054197;28;20457;-74
2021/09/22 02:47:10;;;;;;;13.47;5.20;;;13.30;99.90;;;;;;5054533;28;20795;-73
2021/09/22 02:49:38;;;;;;;21.37;5.50;;;13.30;99.90;;;;;;5054419;28;20529;-73
2021/09/22 02:52:05;;;;;;;18.90;5.30;;;13.20;99.90;;;;;;5054620;28;20463;-73
2021/09/22 02:54:32;;;;;;;15.30;6.73;;;13.20;99.90;;;;;;5054455;28;20466;-73
2021/09/22 02:56:59;;;;;;;14.33;5.40;;;13.10;99.90;;;;;;5053853;28;20469;-73
2021/09/22 02:59:26;;;;;;;22.30;5.60;;;13.10;99.90;;;;;;5054405;28;20459;-73
2021/09/22 03:01:52;;;;;;;16.30;5.47;;;13.10;99.90;;;;;;5054084;28;20456;-73
2021/09/22 03:04:19;;;;;;;16.87;5.77;;;13.00;99.90;;;;;;5054389;28;20897;-73
2021/09/22 03:06:47;;;;;;;18.77;5.03;;;13.00;99.90;;;;;;5054376;28;20479;-73
2021/09/22 03:09:14;;;;;;;21.80;5.07;;;13.00;99.90;;;;;;5054217;28;20472;-73
2021/09/22 03:11:41;;;;;;;20.13;5.50;;;13.00;99.90;;;;;;5054297;28;20465;-73
2021/09/22 03:14:08;;;;;;;18.80;6.07;;;12.90;99.90;;;;;;5054194;28;20456;-73
2021/09/22 03:16:35;;;;;;;19.83;6.27;;;12.90;99.90;;;;;;5053852;28;20557;-73
2021/09/22 03:19:02;;;;;;;12.87;5.13;;;12.80;99.90;;;;;;5053992;28;20459;-73
2021/09/22 03:21:30;;;;;;;23.70;5.57;;;12.80;99.90;;;;;;5054034;28;20466;-73
2021/09/22 03:23:58;;;;;;;16.03;5.20;;;12.80;99.90;;;;;;5054403;28;20791;-73
2021/09/22 03:26:25;;;;;;;17.20;5.10;;;12.80;99.90;;;;;;5053877;28;20462;-73
2021/09/22 03:28:52;;;;;;;16.80;5.70;;;12.70;99.90;;;;;;5054036;28;20459;-74
2021/09/22 03:31:19;;;;;;;17.70;5.73;;;12.70;99.90;;;;;;5054147;28;20459;-73
2021/09/22 03:33:46;;;;;;;20.50;5.53;;;12.70;99.90;;;;;;5055695;28;20460;-73
2021/09/22 03:36:12;;;;;;;17.87;5.27;;;12.70;99.90;;;;;;5057351;28;20488;-73
2021/09/22 03:38:39;;;;;;;23.80;5.07;;;12.70;99.90;;;;;;5057204;28;20467;-73
2021/09/22 03:41:07;;;;;;;14.00;4.73;;;12.70;99.90;;;;;;5057639;28;20793;-73
2021/09/22 03:43:34;;;;;;;20.73;6.23;;;12.70;99.90;;;;;;5057495;28;20459;-73
2021/09/22 03:46:02;;;;;;;19.70;5.37;;;12.60;99.90;;;;;;5057150;28;20459;-73
2021/09/22 03:48:29;;;;;;;20.07;5.10;;;12.60;99.90;;;;;;5056821;28;20463;-73
2021/09/22 03:50:56;;;;;;;18.63;5.57;;;12.60;99.90;;;;;;5057443;28;20455;-73
2021/09/22 03:53:22;;;;;;;17.10;4.70;;;12.60;99.90;;;;;;5057252;28;20455;-73
2021/09/22 03:55:49;;;;;;;13.43;4.00;;;12.60;99.90;;;;;;5056942;28;20491;-73
2021/09/22 03:58:17;;;;;;;14.60;4.97;;;12.60;99.90;;;;;;5057083;28;20460;-73
2021/09/22 04:00:44;;;;;;;18.70;5.23;;;12.60;99.90;;;;;;5057502;28;20459;-73
2021/09/22 04:03:11;;;;;;;20.43;5.20;;;12.60;99.90;;;;;;5056707;28;20501;-73
2021/09/22 04:05:37;;;;;;;21.93;5.10;;;12.60;99.90;;;;;;5056780;28;20513;-73
2021/09/22 04:08:05;;;;;;;20.33;5.80;;;12.60;99.90;;;;;;5056599;28;20471;-73
2021/09/22 04:10:32;;;;;;;15.03;4.43;;;12.60;99.90;;;;;;5057028;28;20455;-73
2021/09/22 04:12:58;;;;;;;14.87;4.50;;;12.60;99.90;;;;;;5056862;28;20501;-73
2021/09/22 04:15:27;;;;;;;30.13;5.47;;;12.60;99.90;;;;;;5056110;28;20487;-73
2021/09/22 04:17:53;;;;;;;20.83;4.97;;;12.60;99.90;;;;;;5056685;28;20467;-73
2021/09/22 04:20:20;;;;;;;14.30;4.97;;;12.70;99.90;;;;;;5056819;28;20828;-73
2021/09/22 04:22:47;;;;;;;19.83;5.87;;;12.70;99.90;;;;;;5056576;28;20467;-73
2021/09/22 04:25:14;;;;;;;23.17;5.57;;;12.70;99.90;;;;;;5056816;28;20801;-73
2021/09/22 04:27:41;;;;;;;20.67;5.30;;;12.70;99.90;;;;;;5056629;28;20460;-73
2021/09/22 04:30:09;;;;;;;21.87;5.73;;;12.70;99.90;;;;;;5056101;28;20939;-73
2021/09/22 04:32:37;;;;;;;14.10;5.00;;;12.70;99.90;;;;;;5056518;28;20521;-72
2021/09/22 04:35:05;;;;;;;16.97;6.10;;;12.70;99.90;;;;;;5056585;28;20467;-73
2021/09/22 04:37:35;;;;;;;17.63;5.13;;;12.80;99.90;;;;;;5056502;28;20467;-73
2021/09/22 04:40:03;;;;;;;14.23;4.97;;;12.70;99.90;;;;;;5056167;28;20445;-73
2021/09/22 04:42:30;;;;;;;22.03;6.30;;;12.70;99.90;;;;;;5056488;28;20467;-73
2021/09/22 04:44:58;;;;;;;18.10;4.90;;;12.80;99.90;;;;;;5056402;28;20455;-73
2021/09/22 04:47:25;;;;;;;14.57;5.37;;;12.80;99.90;;;;;;5056854;28;20470;-73
2021/09/22 04:49:53;;;;;;;13.00;5.20;;;12.80;99.90;;;;;;5056630;28;20521;-73
2021/09/22 04:52:20;;;;;;;14.00;5.10;;;12.80;99.90;;;;;;5056201;28;20471;-73
2021/09/22 04:54:47;;;;;;;19.00;5.30;;;12.90;99.90;;;;;;5056018;28;20901;-73
2021/09/22 04:57:13;;;;;;;19.07;6.77;;;12.90;99.90;;;;;;5056082;28;20479;-73
2021/09/22 04:59:40;;;;;;;20.93;6.60;;;12.90;99.90;;;;;;5055573;28;20463;-73
2021/09/22 05:02:06;;;;;;;16.57;5.10;;;12.90;99.90;;;;;;5055703;28;20825;-73
2021/09/22 05:04:33;;;;;;;14.30;5.33;;;12.90;99.90;;;;;;5055975;28;20459;-73
2021/09/22 05:07:01;;;;;;;20.50;5.30;;;12.90;99.90;;;;;;5056095;28;20475;-73
2021/09/22 05:09:28;;;;;;;16.70;6.13;;;12.80;99.90;;;;;;5055521;28;20460;-73
2021/09/22 05:11:55;;;;;;;16.77;4.97;;;12.90;99.90;;;;;;5055522;28;20940;-73
2021/09/22 05:14:22;;;;;;;17.80;4.90;;;12.90;99.90;;;;;;5055350;28;20459;-73
2021/09/22 05:16:48;;;;;;;18.03;5.50;;;12.90;99.90;;;;;;5054933;28;20499;-73
2021/09/22 05:19:15;;;;;;;10.37;4.57;;;13.00;99.90;;;;;;5055762;28;20522;-73
2021/09/22 05:21:42;;;;;;;20.73;5.40;;;13.00;99.90;;;;;;5055282;28;20464;-73
2021/09/22 05:24:10;;;;;;;14.03;5.17;;;13.00;99.90;;;;;;5055212;28;20465;-73
2021/09/22 05:26:36;;;;;;;16.20;5.17;;;13.00;99.90;;;;;;5055253;28;20463;-73
2021/09/22 05:29:03;;;;;;;12.67;6.00;;;13.00;99.90;;;;;;5055034;28;20469;-73
2021/09/22 05:31:30;;;;;;;19.07;6.30;;;13.00;99.90;;;;;;5055069;28;20915;-73
2021/09/22 05:33:57;;;;;;;16.30;4.60;;;13.10;99.90;;;;;;5054895;28;20472;-73
2021/09/22 05:36:24;;;;;;;27.40;6.60;;;13.10;99.90;;;;;;5054941;28;20482;-73
2021/09/22 05:38:51;;;;;;;17.80;6.10;;;13.00;99.90;;;;;;5054625;28;20549;-73
2021/09/22 05:41:19;;;;;;;19.13;6.23;;;13.00;99.90;;;;;;5055188;28;20459;-73
2021/09/22 05:43:46;;;;;;;23.13;6.90;;;13.00;99.90;;;;;;5055041;28;20453;-73
2021/09/22 05:46:12;;;;;;;15.57;5.60;;;13.00;99.90;;;;;;5054809;28;20451;-73
2021/09/22 05:48:39;;;;;;;20.80;6.57;;;13.00;99.90;;;;;;5054705;28;20476;-73
2021/09/22 05:51:06;;;;;;;16.27;6.23;;;13.10;99.90;;;;;;5054627;28;20458;-73
2021/09/22 05:53:33;;;;;;;13.30;5.50;;;13.10;99.90;;;;;;5054839;28;20464;-72
2021/09/22 05:56:00;;;;;;;14.37;5.70;;;13.10;99.90;;;;;;5053869;28;20486;-74
2021/09/22 05:58:28;;;;;;;19.00;5.40;;;13.10;99.90;;;;;;5054633;28;20744;-74
2021/09/22 06:00:56;;;;;;;15.97;5.17;;;13.10;99.90;;;;;;5054754;28;20466;-72
2021/09/22 06:03:23;;;;;;;17.97;5.83;;;13.10;99.90;;;;;;5054950;28;20488;-73
2021/09/22 06:05:50;;;;;;;21.93;5.87;;;13.10;99.90;;;;;;5054353;28;20900;-73
2021/09/22 06:08:17;;;;;;;15.63;5.73;;;13.10;99.90;;;;;;5054747;28;20472;-74
2021/09/22 06:10:44;;;;;;;29.83;6.80;;;13.10;99.90;;;;;;5054464;28;20792;-74
2021/09/22 06:13:11;;;;;;;14.90;6.10;;;13.10;99.90;;;;;;5054878;28;20500;-74
2021/09/22 06:15:39;;;;;;;17.07;6.30;;;13.20;99.90;;;;;;5054200;28;20487;-73
2021/09/22 06:18:06;;;;;;;17.60;6.17;;;13.20;99.90;;;;;;5054335;28;20456;-73
2021/09/22 06:20:33;;;;;;;20.37;6.23;;;13.20;99.90;;;;;;5054508;28;20460;-74
2021/09/22 06:23:00;;;;;;;21.83;7.03;;;13.20;99.90;;;;;;5054308;28;20457;-73
2021/09/22 06:25:27;;;;;;;17.70;6.57;;;13.20;99.90;;;;;;5054499;28;20455;-72
2021/09/22 06:27:54;;;;;;;23.57;6.70;;;13.30;99.90;;;;;;5054159;28;20447;-72
2021/09/22 06:30:20;;;;;;;21.00;6.50;;;13.30;99.90;;;;;;5054285;28;20464;-73
2021/09/22 06:32:49;;;;;;;33.37;7.10;;;13.30;99.90;;;;;;5054026;28;20462;-72
2021/09/22 06:35:16;;;;;;;22.67;6.73;;;13.30;99.90;;;;;;5054415;28;20472;-74
2021/09/22 06:37:45;;;;;;;18.13;6.13;;;13.30;99.90;;;;;;5054483;28;20499;-73
2021/09/22 06:40:12;;;;;;;15.33;6.23;;;13.40;99.90;;;;;;5054805;28;20459;-73
2021/09/22 06:42:39;;;;;;;24.27;6.30;;;13.40;99.90;;;;;;5055495;28;20940;-73
2021/09/22 06:45:07;;;;;;;19.23;7.00;;;13.40;99.90;;;;;;5056161;28;20479;-74
2021/09/22 06:47:33;;;;;;;19.37;6.00;;;13.40;99.90;;;;;;5055802;28;20453;-73
2021/09/22 06:50:02;;;;;;;21.50;5.97;;;13.40;99.90;;;;;;5056902;28;20461;-73
2021/09/22 06:52:29;;;;;;;17.83;6.10;;;13.30;99.90;;;;;;5055156;28;20482;-73
2021/09/22 06:54:56;;;;;;;20.10;7.10;;;13.30;99.90;;;;;;5057020;28;20521;-73
2021/09/22 06:57:23;;;;;;;23.43;8.60;;;13.30;99.90;;;;;;5056696;28;20487;-73
2021/09/22 06:59:50;;;;;;;20.87;7.77;;;13.40;99.90;;;;;;5056563;28;20456;-74
2021/09/22 07:02:17;;;;;;;19.90;7.03;;;13.40;99.90;;;;;;5056383;28;20452;-73
2021/09/22 07:04:44;;;;;;;17.53;6.07;;;13.50;99.90;;;;;;5055550;28;20455;-73
2021/09/22 07:07:12;;;;;;;17.63;5.87;;;13.60;99.90;;;;;;5054896;28;20464;-73
2021/09/22 07:09:39;;;;;;;15.60;6.33;;;13.60;99.90;;;;;;5058747;28;20554;-73
2021/09/22 07:12:06;;;;;;;24.27;8.00;;;13.70;99.90;;;;;;5059332;28;20476;-73
2021/09/22 07:14:33;;;;;;;15.67;4.97;;;13.80;99.90;;;;;;5059354;28;20458;-73
2021/09/22 07:17:00;;;;;;;20.53;6.00;;;13.80;99.90;;;;;;5057430;28;20480;-73
2021/09/22 07:19:27;;;;;;;20.23;5.50;;;13.90;99.90;;;;;;5058238;28;20514;-73
2021/09/22 07:21:53;;;;;;;19.73;6.60;;;13.90;99.90;;;;;;5058016;28;20466;-73
2021/09/22 07:24:21;;;;;;;16.57;5.23;;;14.00;99.90;;;;;;5058578;28;20787;-73
2021/09/22 07:26:48;;;;;;;16.03;6.20;;;14.00;99.90;;;;;;5058968;28;20491;-73
2021/09/22 07:29:15;;;;;;;17.13;5.23;;;14.00;99.90;;;;;;5058829;28;20858;-73
2021/09/22 07:31:42;;;;;;;13.73;4.63;;;14.10;99.90;;;;;;5058363;28;20463;-73
2021/09/22 07:34:08;;;;;;;17.53;5.60;;;14.10;99.90;;;;;;5058469;28;20474;-73
2021/09/22 07:36:35;;;;;;;19.70;5.70;;;14.10;99.90;;;;;;5057550;28;20505;-73
2021/09/22 07:39:03;;;;;;;20.03;5.30;;;14.20;99.90;;;;;;5057312;28;20462;-73
2021/09/22 07:41:31;;;;;;;17.17;4.70;;;14.20;99.90;;;;;;5057414;28;20457;-74
2021/09/22 07:43:57;;;;;;;15.60;5.60;;;14.30;99.90;;;;;;5057623;28;20469;-74
2021/09/22 07:46:24;;;;;;;17.17;5.80;;;14.30;99.90;;;;;;5057302;28;20465;-74
2021/09/22 07:48:51;;;;;;;19.73;5.60;;;14.40;99.90;;;;;;5057696;28;20557;-74
2021/09/22 07:51:18;;;;;;;16.33;4.87;;;14.40;99.90;;;;;;5058950;28;20497;-74
2021/09/22 07:53:45;;;;;;;12.77;4.63;;;14.50;99.90;;;;;;5057602;28;20463;-73
2021/09/22 07:56:11;;;;;;;12.93;5.00;;;14.50;99.90;;;;;;5056540;28;20489;-73
2021/09/22 07:58:39;;;;;;;17.97;5.30;;;14.50;99.90;;;;;;5056818;28;20486;-73
2021/09/22 08:01:06;;;;;;;21.17;4.83;;;14.60;99.90;;;;;;5056872;28;20467;-72
2021/09/22 08:03:33;;;;;;;24.43;5.57;;;14.60;99.90;;;;;;5056915;28;20467;-74
2021/09/22 08:06:00;;;;;;;22.90;5.73;;;14.60;99.90;;;;;;5057034;28;20458;-72
2021/09/22 08:08:26;;;;;;;15.83;5.73;;;14.70;99.90;;;;;;5057022;28;20524;-72
2021/09/22 08:10:53;;;;;;;17.33;5.70;;;14.60;99.90;;;;;;5056851;28;20466;-73
2021/09/22 08:13:20;;;;;;;19.07;6.23;;;14.70;99.90;;;;;;5056879;28;20482;-73
2021/09/22 08:15:48;;;;;;;17.80;5.10;;;14.70;99.90;;;;;;5055994;28;20490;-72
2021/09/22 08:18:17;;;;;;;19.13;6.30;;;14.70;99.90;;;;;;5056449;28;20483;-74
2021/09/22 08:20:44;;;;;;;15.87;6.00;;;14.70;99.90;;;;;;5056424;28;20834;-74
2021/09/22 08:23:11;;;;;;;18.50;5.40;;;14.70;99.90;;;;;;5056419;28;20800;-74
2021/09/22 08:25:38;;;;;;;28.70;6.50;;;14.70;99.90;;;;;;5056697;28;20463;-72
2021/09/22 08:28:05;;;;;;;22.53;6.90;;;14.70;99.90;;;;;;5056902;28;20455;-72
2021/09/22 08:30:31;;;;;;;19.90;7.30;;;14.70;99.90;;;;;;5056064;28;20545;-72
2021/09/22 08:32:59;;;;;;;23.17;5.77;;;14.70;99.90;;;;;;5056214;28;20470;-72
2021/09/22 08:35:26;;;;;;;16.90;5.97;;;14.70;99.90;;;;;;5056596;28;20769;-73
2021/09/22 08:37:53;;;;;;;18.70;5.33;;;14.80;99.90;;;;;;5056638;28;20486;-72
2021/09/22 08:40:20;;;;;;;19.07;5.83;;;14.70;99.90;;;;;;5056544;28;20466;-74
2021/09/22 08:42:47;;;;;;;16.73;5.90;;;14.70;99.90;;;;;;5056255;28;20466;-73
2021/09/22 08:45:14;;;;;;;14.60;4.73;;;14.70;99.90;;;;;;5055892;28;20458;-73
2021/09/22 08:47:45;;;;;;;17.80;5.63;;;14.70;99.90;;;;;;5055982;28;20461;-73
2021/09/22 08:50:14;;;;;;;23.27;6.33;;;14.70;99.90;;;;;;5055965;28;20497;-74
2021/09/22 08:52:41;;;;;;;16.40;5.70;;;14.70;99.90;;;;;;5055815;28;20470;-73
2021/09/22 08:55:09;;;;;;;16.50;5.17;;;14.70;99.90;;;;;;5056115;28;20799;-73
2021/09/22 08:57:35;;;;;;;25.57;5.13;;;14.80;99.90;;;;;;5055632;28;20970;-73
2021/09/22 09:00:03;;;;;;;24.20;5.43;;;14.90;99.90;;;;;;5056067;28;20475;-73
2021/09/22 09:02:38;;;;;;;16.50;5.00;;;15.00;99.90;;;;;;5055570;28;20459;-73
2021/09/22 09:05:08;;;;;;;17.47;4.87;;;15.10;99.90;;;;;;5055323;28;20826;-72
2021/09/22 09:07:47;;;;;;;17.63;4.77;;;15.10;99.90;;;;;;5056762;28;20872;-73
2021/09/22 09:10:14;;;;;;;18.27;4.40;;;15.20;99.90;;;;;;5055606;28;20450;-74
2021/09/22 09:12:40;;;;;;;9.43;5.00;;;15.20;99.90;;;;;;5055301;28;20527;-73
2021/09/22 09:15:10;;;;;;;18.13;5.60;;;15.30;99.90;;;;;;5055123;28;20490;-73
2021/09/22 09:17:41;;;;;;;23.27;5.77;;;15.30;99.90;;;;;;5055491;28;20483;-73
2021/09/22 09:20:17;;;;;;;15.60;5.00;;;15.40;99.90;;;;;;5055268;28;20520;-73
2021/09/22 09:23:05;;;;;;;15.70;5.30;;;15.40;99.90;;;;;;5055572;28;20778;-73
2021/09/22 09:25:36;;;;;;;17.73;5.13;;;15.50;99.90;;;;;;5054938;28;20860;-74
2021/09/22 09:28:17;;;;;;;14.63;4.20;;;15.60;99.90;;;;;;5055460;28;20443;-73
2021/09/22 09:30:46;;;;;;;16.50;6.30;;;15.70;99.90;;;;;;5054725;28;20454;-74
2021/09/22 09:33:41;;;;;;;20.93;4.90;;;15.70;99.90;;;;;;5055337;28;20835;-72
2021/09/22 09:36:33;;;;;;;21.10;5.30;;;15.80;99.90;;;;;;5055229;28;20447;-73
2021/09/22 09:39:06;;;;;;;13.00;4.40;;;15.90;99.90;;;;;;5055335;28;20444;-72
2021/09/22 09:41:36;;;;;;;12.20;5.03;;;16.00;99.90;;;;;;5055528;28;20881;-72
2021/09/22 09:44:05;;;;;;;14.90;4.77;;;16.00;99.90;;;;;;5055297;28;20447;-73
2021/09/22 09:46:32;;;;;;;19.97;4.90;;;16.00;99.90;;;;;;5054635;28;20454;-73
2021/09/22 09:49:02;;;;;;;19.30;4.90;;;16.10;99.90;;;;;;5054905;28;20456;-73
2021/09/22 09:51:33;;;;;;;15.47;4.50;;;16.30;99.90;;;;;;5056489;28;20470;-73
2021/09/22 09:54:17;;;;;;;15.60;5.20;;;16.30;99.90;;;;;;5054965;28;20455;-73
2021/09/22 09:56:45;;;;;;;14.40;4.43;;;16.30;99.90;;;;;;5055573;28;20466;-73
2021/09/22 09:59:12;;;;;;;17.43;4.73;;;16.20;99.90;;;;;;5054713;28;20460;-73
2021/09/22 10:01:44;;;;;;;14.93;4.53;;;16.20;99.90;;;;;;5055297;28;20566;-73
2021/09/22 10:04:12;;;;;;;21.90;6.37;;;16.20;99.90;;;;;;5055533;28;20519;-73
2021/09/22 10:06:39;;;;;;;10.57;3.90;;;16.20;99.90;;;;;;5055203;28;20460;-73
2021/09/22 10:09:08;;;;;;;15.33;4.00;;;16.30;99.90;;;;;;5055979;28;20470;-73
2021/09/22 10:11:37;;;;;;;20.10;4.87;;;16.30;99.90;;;;;;5056133;28;20456;-74
2021/09/22 10:14:05;;;;;;;10.67;4.50;;;16.40;99.90;;;;;;5055013;28;20463;-74
2021/09/22 10:16:33;;;;;;;14.87;3.97;;;16.40;99.90;;;;;;5054987;28;20486;-72
2021/09/22 10:19:00;;;;;;;17.10;4.23;;;16.50;99.90;;;;;;5055732;28;20515;-72
2021/09/22 10:21:27;;;;;;;15.47;3.90;;;16.50;99.90;;;;;;5055452;28;20466;-73
2021/09/22 10:23:56;;;;;;;15.80;4.20;;;16.60;99.90;;;;;;5055738;28;20543;-73
2021/09/22 10:26:25;;;;;;;21.07;4.33;;;16.70;99.90;;;;;;5054767;28;20928;-73
2021/09/22 10:28:56;;;;;;;17.23;4.20;;;16.80;99.90;;;;;;5054145;28;20502;-72
2021/09/22 10:31:36;;;;;;;16.73;4.67;;;16.90;99.90;;;;;;5054427;28;20482;-73
2021/09/22 10:34:04;;;;;;;17.47;3.33;;;16.90;99.90;;;;;;5053918;28;20453;-72
2021/09/22 10:36:38;;;;;;;13.23;4.03;;;17.00;99.90;;;;;;5054306;28;20466;-73
2021/09/22 10:39:05;;;;;;;14.23;3.63;;;17.20;99.90;;;;;;5054128;28;20482;-73
2021/09/22 10:41:40;;;;;;;13.40;3.23;;;17.20;99.90;;;;;;5054377;28;20470;-73
2021/09/22 10:44:11;;;;;;;14.33;4.10;;;17.20;99.90;;;;;;5060681;28;20446;-73
2021/09/22 10:46:38;;;;;;;12.93;3.73;;;17.30;99.90;;;;;;5058304;28;20517;-73
2021/09/22 10:49:13;;;;;;;8.13;3.87;;;17.30;99.90;;;;;;5058157;28;20517;-73
2021/09/22 10:51:44;;;;;;;15.70;4.27;;;17.40;99.90;;;;;;5058775;28;20822;-73
2021/09/22 10:54:13;;;;;;;12.60;3.10;;;17.30;99.90;;;;;;5058023;28;20534;-73
2021/09/22 10:56:58;;;;;;;13.33;3.43;;;17.30;99.90;;;;;;5057771;28;20459;-73
2021/09/22 10:59:37;;;;;;;10.97;3.37;;;17.30;99.90;;;;;;5057987;28;20448;-73
2021/09/22 11:02:06;;;;;;;13.10;3.60;;;17.30;99.90;;;;;;5058040;28;21006;-73
2021/09/22 11:04:52;;;;;;;14.30;3.60;;;17.40;99.90;;;;;;5058695;28;20482;-73
2021/09/22 11:07:19;;;;;;;13.80;3.67;;;17.50;99.90;;;;;;5057828;28;20458;-73
2021/09/22 11:09:46;;;;;;;14.73;3.80;;;17.60;99.90;;;;;;5057472;28;20455;-73
2021/09/22 11:12:16;;;;;;;13.30;3.57;;;17.60;99.90;;;;;;5057501;28;20787;-73
2021/09/22 11:14:46;;;;;;;11.07;3.20;;;17.70;99.90;;;;;;5057729;28;20454;-74
2021/09/22 11:17:16;;;;;;;13.03;3.20;;;17.80;99.90;;;;;;5058269;28;20459;-73
2021/09/22 11:19:44;;;;;;;16.30;3.90;;;17.90;99.90;;;;;;5058536;28;20768;-74
2021/09/22 11:22:14;;;;;;;9.83;2.87;;;17.90;99.90;;;;;;5057972;28;20501;-73
2021/09/22 11:24:42;;;;;;;9.93;3.30;;;18.20;99.90;;;;;;5057321;28;20459;-73
2021/09/22 11:27:11;;;;;;;16.30;3.57;;;18.30;99.90;;;;;;5058484;28;20786;-72
2021/09/22 11:29:42;;;;;;;14.47;3.13;;;18.50;99.90;;;;;;5058354;28;20473;-74
2021/09/22 11:32:26;;;;;;;16.50;4.10;;;18.50;99.90;;;;;;5058819;28;20776;-73
2021/09/22 11:34:53;;;;;;;9.93;3.53;;;18.40;99.90;;;;;;5058367;28;20447;-74
2021/09/22 11:37:20;;;;;;;10.57;3.47;;;18.40;99.90;;;;;;5058089;28;20459;-74
2021/09/22 11:39:46;;;;;;;15.47;3.13;;;18.40;99.90;;;;;;5058326;28;20470;-73
2021/09/22 11:42:15;;;;;;;11.53;3.07;;;18.50;99.90;;;;;;5058292;28;20470;-73
2021/09/22 11:44:43;;;;;;;10.50;3.10;;;18.60;99.90;;;;;;5058124;28;20455;-73
2021/09/22 11:47:13;;;;;;;7.37;3.00;;;18.90;99.90;;;;;;5058188;28;20472;-72
2021/09/22 11:49:42;;;;;;;12.20;3.30;;;19.70;99.90;;;;;;5057793;28;20905;-72
2021/09/22 11:52:13;;;;;;;9.43;2.80;;;20.70;99.90;;;;;;5057461;28;20938;-72
2021/09/22 11:54:45;;;;;;;10.80;2.90;;;21.60;99.90;;;;;;5056356;28;20460;-73
2021/09/22 11:57:14;;;;;;;9.53;2.90;;;22.40;99.90;;;;;;5056890;28;20456;-73
2021/09/22 11:59:43;;;;;;;10.83;3.30;;;23.10;99.90;;;;;;5056867;28;20463;-73
2021/09/22 12:02:11;;;;;;;7.27;2.40;;;23.80;99.90;;;;;;5057243;28;20474;-74
2021/09/22 12:04:39;;;;;;;8.33;2.60;;;24.20;99.90;;;;;;5057194;28;20956;-74
2021/09/22 12:07:07;;;;;;;8.47;3.27;;;24.00;99.90;;;;;;5057401;28;20517;-73
2021/09/22 12:09:40;;;;;;;8.47;2.93;;;23.90;99.90;;;;;;5056594;28;20543;-73
2021/09/22 12:12:09;;;;;;;10.33;2.73;;;23.80;99.90;;;;;;5056599;28;20551;-73
2021/09/22 12:14:35;;;;;;;7.03;2.40;;;23.90;99.90;;;;;;5056072;28;20474;-73
2021/09/22 12:17:11;;;;;;;7.10;2.50;;;23.70;99.90;;;;;;5056566;28;20761;-73
2021/09/22 12:19:40;;;;;;;9.70;2.53;;;23.10;99.90;;;;;;5056492;28;20493;-72
2021/09/22 12:22:08;;;;;;;9.47;2.63;;;23.00;99.90;;;;;;5056031;28;20463;-73
2021/09/22 12:24:35;;;;;;;7.20;2.47;;;23.00;99.90;;;;;;5056081;28;20966;-73
2021/09/22 12:27:02;;;;;;;9.70;2.90;;;22.80;99.90;;;;;;5056471;28;20797;-73
2021/09/22 12:29:29;;;;;;;10.33;2.37;;;22.70;99.90;;;;;;5056825;28;20459;-73
2021/09/22 12:32:06;;;;;;;10.60;3.20;;;22.90;99.90;;;;;;5056284;28;20464;-73
2021/09/22 12:34:41;;;;;;;11.33;2.90;;;23.30;99.90;;;;;;5056343;28;20443;-73
2021/09/22 12:37:15;;;;;;;9.10;2.57;;;23.90;99.90;;;;;;5056101;28;20497;-74
2021/09/22 12:39:52;;;;;;;9.30;2.47;;;24.30;99.90;;;;;;5055907;28;20499;-74
2021/09/22 12:42:20;;;;;;;8.00;2.63;;;25.00;99.90;;;;;;5056119;28;20475;-73